createdAt,value
2022-12-09T00:00:41.048Z,100657.63
2022-12-09T00:03:07.713Z,100652.63
2022-12-09T00:05:34.222Z,100650.03
2022-12-09T00:08:00.650Z,100649.94
2022-12-09T00:10:27.101Z,100649.69
2022-12-09T00:12:56.139Z,100646.81
2022-12-09T00:15:22.821Z,100646.69
2022-12-09T00:17:49.205Z,100651.19
2022-12-09T00:20:15.667Z,100645.22
2022-12-09T00:22:42.206Z,100647.00
2022-12-09T00:25:08.899Z,100649.69
2022-12-09T00:27:35.785Z,100641.00
2022-12-09T00:30:02.281Z,100640.66
2022-12-09T00:32:28.790Z,100650.31
2022-12-09T00:34:55.793Z,100642.63
2022-12-09T00:37:22.212Z,100637.69
2022-12-09T00:39:48.861Z,100653.16
2022-12-09T00:42:15.360Z,100646.28
2022-12-09T00:44:41.805Z,100650.66
2022-12-09T00:47:08.280Z,100640.16
2022-12-09T00:49:35.147Z,100647.81
2022-12-09T00:52:01.657Z,100649.59
2022-12-09T00:54:28.244Z,100645.03
2022-12-09T00:56:57.089Z,100646.69
2022-12-09T00:59:23.622Z,100641.63
2022-12-09T01:01:50.164Z,100644.81
2022-12-09T01:04:17.403Z,100646.28
2022-12-09T01:06:44.103Z,100642.63
2022-12-09T01:09:10.684Z,100649.47
2022-12-09T01:11:37.200Z,100647.72
2022-12-09T01:14:04.142Z,100654.34
2022-12-09T01:16:33.504Z,100642.19
2022-12-09T01:19:02.655Z,100645.50
2022-12-09T01:21:30.505Z,100646.44
2022-12-09T01:23:56.946Z,100652.47
2022-12-09T01:26:23.518Z,100656.84
2022-12-09T01:28:52.651Z,100655.88
2022-12-09T01:31:22.107Z,100649.03
2022-12-09T01:33:48.871Z,100652.78
2022-12-09T01:36:21.529Z,100658.00
2022-12-09T01:38:48.711Z,100658.72
2022-12-09T01:41:16.786Z,100663.91
2022-12-09T01:43:44.674Z,100664.00
2022-12-09T01:46:11.586Z,100665.59
2022-12-09T01:48:40.371Z,100667.34
2022-12-09T01:51:11.859Z,100667.22
2022-12-09T01:53:42.204Z,100669.94
2022-12-09T01:56:15.055Z,100668.06
2022-12-09T01:58:41.804Z,100664.03
2022-12-09T02:01:08.506Z,100664.03
2022-12-09T02:03:35.348Z,100670.16
2022-12-09T02:06:02.018Z,100664.44
2022-12-09T02:08:28.869Z,100672.56
2022-12-09T02:11:17.925Z,100663.97
2022-12-09T02:14:03.445Z,100662.19
2022-12-09T02:16:37.969Z,100656.72
2022-12-09T02:19:48.709Z,100665.84
2022-12-09T02:22:20.450Z,100665.63
2022-12-09T02:24:57.912Z,100661.28
2022-12-09T02:27:34.139Z,100658.19
2022-12-09T02:30:00.456Z,100659.72
2022-12-09T02:33:07.482Z,100661.31
2022-12-09T02:35:50.533Z,100655.69
2022-12-09T02:38:22.964Z,100649.75
2022-12-09T02:41:06.920Z,100653.91
2022-12-09T02:43:37.985Z,100646.88
2022-12-09T02:46:08.527Z,100651.03
2022-12-09T02:48:40.232Z,100646.56
2022-12-09T02:51:12.971Z,100656.00
2022-12-09T02:53:40.377Z,100644.78
2022-12-09T02:56:08.617Z,100649.25
2022-12-09T02:58:35.827Z,100639.13
2022-12-09T03:01:02.361Z,100641.69
2022-12-09T03:03:32.920Z,100647.47
2022-12-09T03:06:10.294Z,100641.81
2022-12-09T03:08:42.939Z,100634.53
2022-12-09T03:11:13.794Z,100641.38
2022-12-09T03:14:19.000Z,100640.66
2022-12-09T03:17:17.879Z,100640.56
2022-12-09T03:19:48.975Z,100642.63
2022-12-09T03:22:20.200Z,100628.00
2022-12-09T03:25:06.995Z,100634.53
2022-12-09T03:27:48.721Z,100638.69
2022-12-09T03:30:16.410Z,100641.47
2022-12-09T03:32:45.109Z,100631.75
2022-12-09T03:35:19.462Z,100629.88
2022-12-09T03:37:47.070Z,100628.00
2022-12-09T03:40:17.597Z,100623.34
2022-12-09T03:42:58.484Z,100617.00
2022-12-09T03:45:25.523Z,100617.84
2022-12-09T03:47:52.866Z,100618.56
2022-12-09T03:50:23.248Z,100610.78
2022-12-09T03:53:06.394Z,100615.63
2022-12-09T03:55:54.383Z,100610.59
2022-12-09T03:58:21.367Z,100614.09
2022-12-09T04:00:49.183Z,100603.09
2022-12-09T04:03:18.315Z,100603.31
2022-12-09T04:05:45.652Z,100601.88
2022-12-09T04:08:12.231Z,100604.66
2022-12-09T04:10:38.797Z,100608.41
2022-12-09T04:13:05.299Z,100603.22
2022-12-09T04:15:31.694Z,100598.84
2022-12-09T04:17:58.265Z,100598.97
2022-12-09T04:20:25.018Z,100597.22
2022-12-09T04:22:51.673Z,100607.59
2022-12-09T04:25:18.172Z,100600.63
2022-12-09T04:27:44.927Z,100604.28
2022-12-09T04:30:12.066Z,100599.81
2022-12-09T04:32:38.888Z,100604.66
2022-12-09T04:35:06.270Z,100601.88
2022-12-09T04:37:33.350Z,100596.78
2022-12-09T04:40:00.189Z,100607.78
2022-12-09T04:42:28.444Z,100608.19
2022-12-09T04:44:55.036Z,100599.69
2022-12-09T04:47:21.952Z,100608.19
2022-12-09T04:49:48.650Z,100614.91
2022-12-09T04:52:17.900Z,100616.25
2022-12-09T04:54:44.896Z,100611.41
2022-12-09T04:57:12.410Z,100619.91
2022-12-09T04:59:38.935Z,100615.63
2022-12-09T05:02:05.744Z,100611.69
2022-12-09T05:04:32.861Z,100612.47
2022-12-09T05:06:59.602Z,100608.91
2022-12-09T05:09:26.494Z,100608.38
2022-12-09T05:11:53.665Z,100613.38
2022-12-09T05:14:20.359Z,100607.13
2022-12-09T05:16:46.948Z,100607.13
2022-12-09T05:19:13.667Z,100606.22
2022-12-09T05:21:40.599Z,100609.72
2022-12-09T05:24:07.615Z,100607.47
2022-12-09T05:26:34.504Z,100608.50
2022-12-09T05:29:01.327Z,100616.28
2022-12-09T05:31:28.280Z,100612.56
2022-12-09T05:33:55.500Z,100609.09
2022-12-09T05:36:25.371Z,100603.63
2022-12-09T05:38:52.540Z,100597.63
2022-12-09T05:41:19.762Z,100598.22
2022-12-09T05:43:47.124Z,100597.91
2022-12-09T05:46:14.765Z,100594.69
2022-12-09T05:48:41.957Z,100597.00
2022-12-09T05:51:16.687Z,100599.28
2022-12-09T05:53:43.310Z,100598.84
2022-12-09T05:56:10.018Z,100596.38
2022-12-09T05:58:36.829Z,100605.81
2022-12-09T06:01:08.013Z,100608.00
2022-12-09T06:03:35.380Z,100605.81
2022-12-09T06:06:10.716Z,100602.19
2022-12-09T06:08:38.619Z,100604.13
2022-12-09T06:11:09.595Z,100604.38
2022-12-09T06:13:36.140Z,100595.03
2022-12-09T06:16:05.335Z,100598.56
2022-12-09T06:18:32.218Z,100594.53
2022-12-09T06:20:59.077Z,100593.88
2022-12-09T06:23:26.927Z,100593.50
2022-12-09T06:25:53.691Z,100598.88
2022-12-09T06:28:20.294Z,100593.91
2022-12-09T06:30:47.200Z,100602.06
2022-12-09T06:33:37.355Z,100594.50
2022-12-09T06:36:04.726Z,100602.78
2022-12-09T06:38:31.297Z,100598.44
2022-12-09T06:40:57.771Z,100585.13
2022-12-09T06:43:24.204Z,100603.75
2022-12-09T06:45:50.788Z,100601.78
2022-12-09T06:48:17.375Z,100602.06
2022-12-09T06:50:44.190Z,100596.75
2022-12-09T06:53:10.832Z,100597.03
2022-12-09T06:55:37.386Z,100595.78
2022-12-09T06:58:04.295Z,100602.69
2022-12-09T07:00:32.538Z,100608.00
2022-12-09T07:02:59.460Z,100599.69
2022-12-09T07:05:26.819Z,100604.13
2022-12-09T07:07:53.973Z,100599.34
2022-12-09T07:10:21.047Z,100610.25
2022-12-09T07:12:48.267Z,100606.69
2022-12-09T07:15:15.300Z,100613.53
2022-12-09T07:17:42.218Z,100615.00
2022-12-09T07:20:09.650Z,100610.22
2022-12-09T07:22:37.044Z,100608.66
2022-12-09T07:25:04.299Z,100617.25
2022-12-09T07:27:30.985Z,100617.31
2022-12-09T07:29:58.412Z,100625.91
2022-12-09T07:32:25.207Z,100622.13
2022-12-09T07:34:51.940Z,100624.78
2022-12-09T07:37:18.798Z,100624.78
2022-12-09T07:39:45.506Z,100629.31
2022-12-09T07:42:12.597Z,100628.41
2022-12-09T07:44:39.381Z,100626.00
2022-12-09T07:47:06.178Z,100629.41
2022-12-09T07:49:33.302Z,100630.06
2022-12-09T07:52:00.122Z,100622.03
2022-12-09T07:54:26.576Z,100623.69
2022-12-09T07:56:53.137Z,100632.19
2022-12-09T07:59:19.758Z,100635.88
2022-12-09T08:01:46.682Z,100631.00
2022-12-09T08:04:13.630Z,100638.91
2022-12-09T08:06:40.500Z,100627.84
2022-12-09T08:09:10.524Z,100630.25
2022-12-09T08:11:37.894Z,100641.78
2022-12-09T08:14:11.348Z,100641.41
2022-12-09T08:16:39.302Z,100636.81
2022-12-09T08:19:06.227Z,100646.88
2022-12-09T08:21:33.741Z,100641.97
2022-12-09T08:24:02.469Z,100648.34
2022-12-09T08:26:30.721Z,100639.66
2022-12-09T08:28:58.125Z,100640.56
2022-12-09T08:31:26.760Z,100640.97
2022-12-09T08:33:54.845Z,100646.88
2022-12-09T08:36:24.785Z,100643.16
2022-12-09T08:38:51.793Z,100644.00
2022-12-09T08:41:22.916Z,100643.44
2022-12-09T08:43:49.442Z,100639.25
2022-12-09T08:46:16.591Z,100641.84
2022-12-09T08:48:43.717Z,100641.13
2022-12-09T08:51:12.283Z,100640.53
2022-12-09T08:53:39.237Z,100640.34
2022-12-09T08:56:14.575Z,100645.78
2022-12-09T08:58:42.386Z,100644.94
2022-12-09T09:01:16.613Z,100643.91
2022-12-09T09:03:43.893Z,100645.03
2022-12-09T09:06:11.576Z,100645.69
2022-12-09T09:08:39.749Z,100648.91
2022-12-09T09:11:15.255Z,100652.13
2022-12-09T09:13:43.575Z,100659.69
2022-12-09T09:16:20.213Z,100652.50
2022-12-09T09:18:50.938Z,100659.84
2022-12-09T09:21:19.768Z,100655.31
2022-12-09T09:23:46.239Z,100666.09
2022-12-09T09:26:18.683Z,100658.03
2022-12-09T09:28:45.951Z,100671.53
2022-12-09T09:31:18.405Z,100668.06
2022-12-09T09:33:46.133Z,100672.75
2022-12-09T09:36:18.825Z,100669.34
2022-12-09T09:38:45.315Z,100670.00
2022-12-09T09:41:25.536Z,100668.47
2022-12-09T09:43:53.178Z,100670.66
2022-12-09T09:46:47.885Z,100675.25
2022-12-09T09:49:28.884Z,100675.34
2022-12-09T09:51:56.316Z,100668.19
2022-12-09T09:54:22.896Z,100669.31
2022-12-09T09:57:15.057Z,100665.19
2022-12-09T10:00:05.054Z,100658.47
2022-12-09T10:02:56.752Z,100665.91
2022-12-09T10:05:30.442Z,100660.44
2022-12-09T10:08:19.838Z,100647.09
2022-12-09T10:10:59.876Z,100653.19
2022-12-09T10:13:48.216Z,100653.00
2022-12-09T10:16:31.685Z,100656.13
2022-12-09T10:19:09.376Z,100643.88
2022-12-09T10:21:41.123Z,100649.56
2022-12-09T10:24:37.341Z,100646.34
2022-12-09T10:27:15.313Z,100651.66
2022-12-09T10:29:56.798Z,100652.81
2022-12-09T10:32:29.016Z,100651.22
2022-12-09T10:34:56.214Z,100656.13
2022-12-09T10:37:35.218Z,100647.59
2022-12-09T10:40:19.377Z,100644.50
2022-12-09T10:43:11.043Z,100641.50
2022-12-09T10:48:53.164Z,100643.56
2022-12-09T10:51:32.347Z,100639.41
2022-12-09T10:54:13.377Z,100643.34
2022-12-09T10:57:03.665Z,100643.97
2022-12-09T10:59:31.447Z,100636.09
2022-12-09T11:02:02.861Z,100635.03
2022-12-09T11:04:41.972Z,100634.00
2022-12-09T11:07:18.276Z,100636.34
2022-12-09T11:09:49.133Z,100635.53
2022-12-09T11:12:31.018Z,100639.69
2022-12-09T11:15:20.752Z,100624.63
2022-12-09T11:18:00.408Z,100621.09
2022-12-09T11:20:30.466Z,100628.66
2022-12-09T11:23:01.733Z,100624.84
2022-12-09T11:25:33.849Z,100631.63
2022-12-09T11:28:01.972Z,100621.25
2022-12-09T11:30:34.165Z,100628.28
2022-12-09T11:33:20.444Z,100625.78
2022-12-09T11:35:47.030Z,100630.94
2022-12-09T11:38:28.029Z,100633.84
2022-12-09T11:41:14.923Z,100629.34
2022-12-09T11:43:52.637Z,100625.31
2022-12-09T11:46:21.786Z,100629.53
2022-12-09T11:48:50.602Z,100631.16
2022-12-09T11:51:25.694Z,100624.97
2022-12-09T11:54:03.237Z,100626.63
2022-12-09T11:56:30.189Z,100625.59
2022-12-09T11:59:01.446Z,100629.09
2022-12-09T12:02:04.635Z,100631.53
2022-12-09T12:04:36.075Z,100628.13
2022-12-09T12:07:07.910Z,100628.53
2022-12-09T12:09:47.628Z,100625.38
2022-12-09T12:12:47.011Z,100629.47
2022-12-09T12:15:23.480Z,100628.34
2022-12-09T12:17:55.226Z,100627.63
2022-12-09T12:20:31.776Z,100625.31
2022-12-09T12:23:00.842Z,100627.47
2022-12-09T12:25:58.102Z,100629.75
2022-12-09T12:28:46.711Z,100618.63
2022-12-09T12:31:33.256Z,100622.66
2022-12-09T12:34:25.517Z,100621.47
2022-12-09T12:37:19.998Z,100630.56
2022-12-09T12:40:10.503Z,100619.34
2022-12-09T12:43:11.261Z,100619.53
2022-12-09T12:46:19.515Z,100615.59
2022-12-09T12:49:17.616Z,100611.94
2022-12-09T12:52:39.408Z,100612.88
2022-12-09T12:55:12.738Z,100606.06
2022-12-09T12:57:45.360Z,100602.03
2022-12-09T13:00:18.828Z,100606.94
2022-12-09T13:03:14.056Z,100599.69
2022-12-09T13:05:45.128Z,100602.16
2022-12-09T13:08:20.010Z,100607.84
2022-12-09T13:10:51.343Z,100601.63
2022-12-09T13:13:47.022Z,100605.66
2022-12-09T13:16:33.191Z,100614.69
2022-12-09T13:19:27.105Z,100598.69
2022-12-09T13:21:54.081Z,100599.41
2022-12-09T13:24:55.421Z,100600.00
2022-12-09T13:27:48.060Z,100599.56
2022-12-09T13:30:23.824Z,100602.06
2022-12-09T13:32:56.338Z,100605.81
2022-12-09T13:35:35.876Z,100605.81
2022-12-09T13:38:02.284Z,100608.50
2022-12-09T13:40:35.220Z,100613.09
2022-12-09T13:43:01.621Z,100609.88
2022-12-09T13:45:43.134Z,100600.56
2022-12-09T13:48:16.901Z,100596.72
2022-12-09T13:50:59.477Z,100593.53
2022-12-09T13:53:35.367Z,100597.16
2022-12-09T13:56:16.651Z,100596.63
2022-12-09T13:59:23.446Z,100600.88
2022-12-09T14:01:54.765Z,100596.63
2022-12-09T14:04:21.027Z,100603.81
2022-12-09T14:07:01.142Z,100595.72
2022-12-09T14:09:45.410Z,100599.22
2022-12-09T14:12:14.942Z,100590.81
2022-12-09T14:14:44.021Z,100596.63
2022-12-09T14:17:46.142Z,100590.41
2022-12-09T14:20:17.804Z,100606.06
2022-12-09T14:23:09.610Z,100607.63
2022-12-09T14:25:35.927Z,100606.56
2022-12-09T14:28:24.222Z,100598.84
2022-12-09T14:30:52.011Z,100607.47
2022-12-09T14:33:30.545Z,100605.91
2022-12-09T14:36:06.071Z,100608.41
2022-12-09T14:39:08.025Z,100606.03
2022-12-09T14:41:46.328Z,100609.06
2022-12-09T14:44:23.015Z,100610.03
2022-12-09T14:46:54.422Z,100613.53
2022-12-09T14:49:24.920Z,100611.66
2022-12-09T14:52:27.138Z,100617.06
2022-12-09T14:54:56.195Z,100614.38
2022-12-09T14:57:41.456Z,100619.88
2022-12-09T15:00:24.429Z,100623.09
2022-12-09T15:03:22.952Z,100620.31
2022-12-09T15:05:38.864Z,100619.28
2022-12-09T15:08:05.436Z,100621.78
2022-12-09T15:10:38.115Z,100616.78
2022-12-09T15:13:05.403Z,100619.72
2022-12-09T15:15:38.341Z,100611.09
2022-12-09T15:18:17.645Z,100620.72
2022-12-09T15:20:50.124Z,100624.03
2022-12-09T15:23:20.833Z,100616.59
2022-12-09T15:25:56.220Z,100617.41
2022-12-09T15:28:27.049Z,100619.38
2022-12-09T15:31:05.374Z,100630.47
2022-12-09T15:33:39.947Z,100623.56
2022-12-09T15:36:25.421Z,100617.94
2022-12-09T15:39:05.409Z,100629.47
2022-12-09T15:42:01.455Z,100627.59
2022-12-09T15:44:36.242Z,100633.94
2022-12-09T15:47:10.330Z,100632.78
2022-12-09T15:49:44.547Z,100635.25
2022-12-09T15:52:12.788Z,100637.34
2022-12-09T15:54:43.683Z,100632.97
2022-12-09T15:57:13.862Z,100628.13
2022-12-09T15:59:43.061Z,100629.75
2022-12-09T16:02:22.444Z,100626.25
2022-12-09T16:04:50.273Z,100629.13
2022-12-09T16:07:19.706Z,100622.09
2022-12-09T16:10:08.814Z,100628.72
2022-12-09T16:12:36.426Z,100628.09
2022-12-09T16:15:04.651Z,100636.59
2022-12-09T16:17:36.215Z,100629.56
2022-12-09T16:20:22.935Z,100628.59
2022-12-09T16:22:50.591Z,100632.00
2022-12-09T16:25:26.012Z,100642.38
2022-12-09T16:28:06.764Z,100647.13
2022-12-09T16:30:44.765Z,100640.78
2022-12-09T16:33:20.087Z,100640.84
2022-12-09T16:35:59.789Z,100643.38
2022-12-09T16:38:26.217Z,100639.91
2022-12-09T16:40:52.526Z,100640.13
2022-12-09T16:43:22.398Z,100636.59
2022-12-09T16:45:51.062Z,100638.66
2022-12-09T16:48:19.112Z,100634.38
2022-12-09T16:51:02.639Z,100638.66
2022-12-09T16:53:34.088Z,100637.28
2022-12-09T16:56:02.349Z,100633.13
2022-12-09T16:58:31.869Z,100642.00
2022-12-09T17:01:00.147Z,100640.81
2022-12-09T17:03:45.820Z,100637.25
2022-12-09T17:06:17.828Z,100642.78
2022-12-09T17:08:44.809Z,100644.91
2022-12-09T17:11:12.009Z,100640.22
2022-12-09T17:13:38.934Z,100654.34
2022-12-09T17:16:06.933Z,100653.78
2022-12-09T17:18:33.949Z,100659.63
2022-12-09T17:21:12.896Z,100657.28
2022-12-09T17:23:40.517Z,100662.09
2022-12-09T17:26:09.654Z,100653.97
2022-12-09T17:28:36.573Z,100660.13
2022-12-09T17:31:11.567Z,100666.13
2022-12-09T17:33:38.379Z,100659.50
2022-12-09T17:36:05.889Z,100658.63
2022-12-09T17:38:32.376Z,100661.34
2022-12-09T17:41:03.851Z,100659.28
2022-12-09T17:43:32.370Z,100670.72
2022-12-09T17:46:00.698Z,100676.91
2022-12-09T17:48:29.570Z,100672.56
2022-12-09T17:50:56.356Z,100671.25
2022-12-09T17:53:23.111Z,100672.16
2022-12-09T17:55:49.583Z,100672.34
2022-12-09T17:58:16.134Z,100669.81
2022-12-09T18:00:42.743Z,100665.59
2022-12-09T18:03:13.977Z,100671.50
2022-12-09T18:05:44.341Z,100671.59
2022-12-09T18:08:10.888Z,100667.16
2022-12-09T18:10:37.499Z,100672.59
2022-12-09T18:13:03.916Z,100672.69
2022-12-09T18:15:30.720Z,100676.84
2022-12-09T18:17:57.883Z,100677.66
2022-12-09T18:20:24.320Z,100672.59
2022-12-09T18:22:51.024Z,100682.28
2022-12-09T18:25:17.395Z,100684.84
2022-12-09T18:27:43.919Z,100685.59
2022-12-09T18:30:10.938Z,100690.91
2022-12-09T18:32:37.356Z,100696.44
2022-12-09T18:35:04.106Z,100696.63
2022-12-09T18:37:30.607Z,100695.22
2022-12-09T18:39:56.944Z,100697.28
2022-12-09T18:42:23.434Z,100696.88
2022-12-09T18:44:50.200Z,100702.31
2022-12-09T18:47:16.768Z,100695.81
2022-12-09T18:49:45.361Z,100699.97
2022-12-09T18:52:11.760Z,100701.91
2022-12-09T18:54:38.191Z,100699.97
2022-12-09T18:57:04.536Z,100704.28
2022-12-09T18:59:31.356Z,100706.72
2022-12-09T19:01:58.353Z,100707.28
2022-12-09T19:04:27.613Z,100707.28
2022-12-09T19:06:59.871Z,100702.31
2022-12-09T19:09:31.838Z,100708.63
2022-12-09T19:12:11.336Z,100715.97
2022-12-09T19:14:44.718Z,100715.09
2022-12-09T19:17:11.026Z,100722.09
2022-12-09T19:19:37.418Z,100723.25
2022-12-09T19:22:06.194Z,100732.81
2022-12-09T19:24:32.971Z,100733.50
2022-12-09T19:26:59.417Z,100740.00
2022-12-09T19:29:27.902Z,100745.22
2022-12-09T19:31:57.058Z,100744.47
2022-12-09T19:34:28.765Z,100741.16
2022-12-09T19:36:57.792Z,100745.72
2022-12-09T19:39:29.791Z,100750.97
2022-12-09T19:41:57.866Z,100745.97
2022-12-09T19:44:52.693Z,100746.97
2022-12-09T19:47:12.661Z,100740.94
2022-12-09T19:49:40.854Z,100742.03
2022-12-09T19:52:07.293Z,100746.28
2022-12-09T19:54:33.711Z,100749.69
2022-12-09T19:57:00.102Z,100755.59
2022-12-09T19:59:27.281Z,100756.59
2022-12-09T20:01:54.159Z,100751.75
2022-12-09T20:04:48.006Z,100750.06
2022-12-09T20:07:09.301Z,100752.66
2022-12-09T20:09:37.287Z,100760.31
2022-12-09T20:12:04.191Z,100751.91
2022-12-09T20:14:30.564Z,100753.66
2022-12-09T20:16:56.960Z,100751.41
2022-12-09T20:19:23.719Z,100747.16
2022-12-09T20:21:50.193Z,100752.38
2022-12-09T20:24:16.538Z,100755.94
2022-12-09T20:26:43.845Z,100763.06
2022-12-09T20:29:10.972Z,100756.94
2022-12-09T20:31:38.609Z,100760.28
2022-12-09T20:34:12.129Z,100768.69
2022-12-09T20:36:40.780Z,100764.38
2022-12-09T20:39:12.433Z,100764.97
2022-12-09T20:41:39.890Z,100770.03
2022-12-09T20:44:06.307Z,100770.94
2022-12-09T20:46:33.478Z,100767.44
2022-12-09T20:49:00.672Z,100762.41
2022-12-09T20:51:32.748Z,100764.13
2022-12-09T20:54:00.182Z,100765.19
2022-12-09T20:56:28.464Z,100766.13
2022-12-09T20:58:55.539Z,100762.09
2022-12-09T21:01:25.327Z,100768.16
2022-12-09T21:03:53.399Z,100770.16
2022-12-09T21:06:22.294Z,100763.38
2022-12-09T21:08:49.365Z,100764.31
2022-12-09T21:11:18.481Z,100765.97
2022-12-09T21:13:47.693Z,100765.06
2022-12-09T21:16:25.403Z,100760.06
2022-12-09T21:18:54.252Z,100761.94
2022-12-09T21:21:22.071Z,100766.44
2022-12-09T21:23:50.148Z,100763.13
2022-12-09T21:26:18.609Z,100768.25
2022-12-09T21:28:46.545Z,100769.91
2022-12-09T21:31:17.340Z,100770.91
2022-12-09T21:33:44.820Z,100766.50
2022-12-09T21:36:14.717Z,100767.34
2022-12-09T21:38:41.643Z,100754.78
2022-12-09T21:41:10.922Z,100766.66
2022-12-09T21:43:38.252Z,100772.72
2022-12-09T21:46:07.104Z,100763.50
2022-12-09T21:48:34.006Z,100766.38
2022-12-09T21:51:02.012Z,100766.38
2022-12-09T21:53:29.430Z,100766.06
2022-12-09T21:56:01.273Z,100768.63
2022-12-09T21:58:29.748Z,100773.03
2022-12-09T22:00:56.123Z,100775.00
2022-12-09T22:03:24.353Z,100776.44
2022-12-09T22:05:56.642Z,100782.47
2022-12-09T22:08:24.630Z,100776.50
2022-12-09T22:10:51.013Z,100782.47
2022-12-09T22:13:17.320Z,100787.56
2022-12-09T22:15:43.709Z,100795.22
2022-12-09T22:18:10.099Z,100802.94
2022-12-09T22:23:22.893Z,100795.22
2022-12-09T22:25:49.247Z,100792.78
2022-12-09T22:28:15.621Z,100799.75
2022-12-09T22:30:42.542Z,100798.03
2022-12-09T22:33:08.933Z,100805.00
2022-12-09T22:35:35.320Z,100799.75
2022-12-09T22:38:05.270Z,100807.63
2022-12-09T22:40:37.313Z,100809.53
2022-12-09T22:43:03.631Z,100812.03
2022-12-09T22:45:29.967Z,100812.03
2022-12-09T22:47:56.433Z,100798.47
2022-12-09T22:50:22.805Z,100804.38
2022-12-09T22:52:49.156Z,100808.47
2022-12-09T22:55:15.479Z,100799.00
2022-12-09T22:57:41.912Z,100800.91
2022-12-09T23:00:12.045Z,100807.78
2022-12-09T23:02:39.288Z,100813.78
2022-12-09T23:05:07.567Z,100804.38
2022-12-09T23:07:35.300Z,100817.31
2022-12-09T23:10:02.013Z,100810.06
2022-12-09T23:12:28.489Z,100806.56
2022-12-09T23:14:54.847Z,100807.47
2022-12-09T23:17:21.173Z,100804.22
2022-12-09T23:19:47.511Z,100806.03
2022-12-09T23:22:13.893Z,100806.09
2022-12-09T23:24:40.304Z,100808.84
2022-12-09T23:27:06.683Z,100811.44
2022-12-09T23:29:33.074Z,100808.03
2022-12-09T23:31:59.441Z,100814.09
2022-12-09T23:34:26.393Z,100806.50
2022-12-09T23:36:52.817Z,100810.06
2022-12-09T23:39:19.496Z,100804.16
2022-12-09T23:41:46.318Z,100811.94
2022-12-09T23:44:15.430Z,100811.94
2022-12-09T23:46:41.939Z,100811.25
2022-12-09T23:49:08.962Z,100818.97
2022-12-09T23:51:38.233Z,100815.56
2022-12-09T23:54:06.770Z,100819.94
2022-12-09T23:56:36.501Z,100813.00
2022-12-09T23:59:06.770Z,100820.72
